KOTH

Southwest Oregon Regional Airport

North Bend, Oregon, USA
METAR KOTH 212156Z 33013G18KT 10SM OVC028 18/12 A3019 RMK AO2 SLP224 T01780122
Observed Flight Rules
Jun-21 @ 21:56 UTC (11 minutes ago) Marginal Visual Flight Rules
Wind Visibility Clouds
330° at 13 knots
 Gusting to 18 knots
10 miles
  • Overcast at 2,800' AGL
Temperatures Readings
Current 18°C / 64°F
Dewpoint 12°C / 54°F
Humidity 68%
Altimeter 30.19" Hg
Pressure 1022.4 hPa
Elevation 4
METAR KOTH 212156Z 33013G18KT 10SM OVC028 18/12 A3019 RMK AO2 SLP224 T01780122
Observed Flight Rules
Jun-21 @ 21:56 UTC
(11 minutes ago)
MVFR
Wind Visibility
330° at 13 knots
 Gusting to 18 knots
10 miles
Clouds
  • Overcast at 2,800' AGL
Temperature Dewpoint
18°C / 64°F 12°C / 54°F
Humidity Altimeter Pressure
68% 30.19" Hg 1022.4 hPa